sensor_id;sensor_type;location;lat;lon;timestamp;P1;durP1;ratioP1;P2;durP2;ratioP2
67675;SDS011;54456;48.436;10.028;2022-10-31T00:00:22;17.77;;;6.67;;
67675;SDS011;54456;48.436;10.028;2022-10-31T00:01:53;21.90;;;7.20;;
67675;SDS011;54456;48.436;10.028;2022-10-31T00:03:23;13.07;;;5.73;;
67675;SDS011;54456;48.436;10.028;2022-10-31T00:04:53;16.80;;;7.97;;
67675;SDS011;54456;48.436;10.028;2022-10-31T00:06:24;14.67;;;7.23;;
67675;SDS011;54456;48.436;10.028;2022-10-31T00:07:54;17.08;;;7.65;;
67675;SDS011;54456;48.436;10.028;2022-10-31T00:09:25;17.70;;;7.30;;
67675;SDS011;54456;48.436;10.028;2022-10-31T00:10:55;14.97;;;7.10;;
67675;SDS011;54456;48.436;10.028;2022-10-31T00:12:26;15.57;;;6.57;;
67675;SDS011;54456;48.436;10.028;2022-10-31T00:13:57;16.00;;;7.28;;
67675;SDS011;54456;48.436;10.028;2022-10-31T00:15:28;16.02;;;6.88;;
67675;SDS011;54456;48.436;10.028;2022-10-31T00:16:58;15.40;;;5.05;;
67675;SDS011;54456;48.436;10.028;2022-10-31T00:18:29;13.50;;;6.50;;
67675;SDS011;54456;48.436;10.028;2022-10-31T00:19:59;13.73;;;6.37;;
67675;SDS011;54456;48.436;10.028;2022-10-31T00:21:30;14.13;;;6.30;;
67675;SDS011;54456;48.436;10.028;2022-10-31T00:23:01;13.25;;;6.40;;
67675;SDS011;54456;48.436;10.028;2022-10-31T00:24:31;13.18;;;7.47;;
67675;SDS011;54456;48.436;10.028;2022-10-31T00:26:02;14.83;;;7.60;;
67675;SDS011;54456;48.436;10.028;2022-10-31T00:27:32;17.60;;;7.97;;
67675;SDS011;54456;48.436;10.028;2022-10-31T00:29:03;14.53;;;7.33;;
67675;SDS011;54456;48.436;10.028;2022-10-31T00:30:33;14.47;;;6.80;;
67675;SDS011;54456;48.436;10.028;2022-10-31T00:32:03;15.48;;;5.85;;
67675;SDS011;54456;48.436;10.028;2022-10-31T00:33:35;20.63;;;7.05;;
67675;SDS011;54456;48.436;10.028;2022-10-31T00:35:06;14.60;;;7.10;;
67675;SDS011;54456;48.436;10.028;2022-10-31T00:36:36;15.20;;;6.38;;
67675;SDS011;54456;48.436;10.028;2022-10-31T00:38:07;14.18;;;6.22;;
67675;SDS011;54456;48.436;10.028;2022-10-31T00:39:37;15.87;;;7.00;;
67675;SDS011;54456;48.436;10.028;2022-10-31T00:41:08;13.57;;;6.73;;
67675;SDS011;54456;48.436;10.028;2022-10-31T00:42:39;14.48;;;6.78;;
67675;SDS011;54456;48.436;10.028;2022-10-31T00:44:11;12.63;;;6.90;;
67675;SDS011;54456;48.436;10.028;2022-10-31T00:45:42;14.95;;;6.40;;
67675;SDS011;54456;48.436;10.028;2022-10-31T00:47:12;14.88;;;5.53;;
67675;SDS011;54456;48.436;10.028;2022-10-31T00:48:43;13.97;;;7.03;;
67675;SDS011;54456;48.436;10.028;2022-10-31T00:50:13;15.90;;;6.97;;
67675;SDS011;54456;48.436;10.028;2022-10-31T00:51:43;11.77;;;6.53;;
67675;SDS011;54456;48.436;10.028;2022-10-31T00:53:14;12.90;;;6.70;;
67675;SDS011;54456;48.436;10.028;2022-10-31T00:54:44;16.00;;;7.77;;
67675;SDS011;54456;48.436;10.028;2022-10-31T00:56:14;14.63;;;6.87;;
67675;SDS011;54456;48.436;10.028;2022-10-31T00:57:47;18.63;;;7.57;;
67675;SDS011;54456;48.436;10.028;2022-10-31T00:59:18;16.55;;;7.60;;
67675;SDS011;54456;48.436;10.028;2022-10-31T01:00:48;15.70;;;7.10;;
67675;SDS011;54456;48.436;10.028;2022-10-31T01:02:24;13.25;;;6.93;;
67675;SDS011;54456;48.436;10.028;2022-10-31T01:03:55;15.68;;;6.72;;
67675;SDS011;54456;48.436;10.028;2022-10-31T01:05:25;14.50;;;7.17;;
67675;SDS011;54456;48.436;10.028;2022-10-31T01:06:55;15.63;;;6.97;;
67675;SDS011;54456;48.436;10.028;2022-10-31T01:08:26;17.00;;;6.20;;
67675;SDS011;54456;48.436;10.028;2022-10-31T01:09:57;14.50;;;6.15;;
67675;SDS011;54456;48.436;10.028;2022-10-31T01:11:27;14.67;;;5.93;;
67675;SDS011;54456;48.436;10.028;2022-10-31T01:12:57;13.63;;;6.07;;
67675;SDS011;54456;48.436;10.028;2022-10-31T01:14:28;14.43;;;5.67;;
67675;SDS011;54456;48.436;10.028;2022-10-31T01:15:58;14.90;;;6.97;;
67675;SDS011;54456;48.436;10.028;2022-10-31T01:17:29;13.93;;;5.57;;
67675;SDS011;54456;48.436;10.028;2022-10-31T01:19:00;15.07;;;6.10;;
67675;SDS011;54456;48.436;10.028;2022-10-31T01:20:30;13.60;;;6.37;;
67675;SDS011;54456;48.436;10.028;2022-10-31T01:22:00;13.23;;;6.00;;
67675;SDS011;54456;48.436;10.028;2022-10-31T01:23:31;12.87;;;5.37;;
67675;SDS011;54456;48.436;10.028;2022-10-31T01:25:02;13.43;;;5.63;;
67675;SDS011;54456;48.436;10.028;2022-10-31T01:26:32;12.52;;;5.15;;
67675;SDS011;54456;48.436;10.028;2022-10-31T01:28:03;13.82;;;5.55;;
67675;SDS011;54456;48.436;10.028;2022-10-31T01:29:33;12.30;;;4.70;;
67675;SDS011;54456;48.436;10.028;2022-10-31T01:31:05;14.38;;;6.22;;
67675;SDS011;54456;48.436;10.028;2022-10-31T01:32:37;14.13;;;5.90;;
67675;SDS011;54456;48.436;10.028;2022-10-31T01:34:08;13.03;;;5.83;;
67675;SDS011;54456;48.436;10.028;2022-10-31T01:35:45;12.57;;;6.40;;
67675;SDS011;54456;48.436;10.028;2022-10-31T01:37:16;12.83;;;6.07;;
67675;SDS011;54456;48.436;10.028;2022-10-31T01:38:46;14.73;;;6.60;;
67675;SDS011;54456;48.436;10.028;2022-10-31T01:40:17;12.00;;;5.93;;
67675;SDS011;54456;48.436;10.028;2022-10-31T01:41:48;12.77;;;6.43;;
67675;SDS011;54456;48.436;10.028;2022-10-31T01:43:20;15.05;;;6.40;;
67675;SDS011;54456;48.436;10.028;2022-10-31T01:46:33;15.38;;;6.10;;
67675;SDS011;54456;48.436;10.028;2022-10-31T01:48:06;16.40;;;6.88;;
67675;SDS011;54456;48.436;10.028;2022-10-31T01:49:43;13.35;;;6.13;;
67675;SDS011;54456;48.436;10.028;2022-10-31T01:51:17;12.48;;;6.60;;
67675;SDS011;54456;48.436;10.028;2022-10-31T01:52:50;16.80;;;6.38;;
67675;SDS011;54456;48.436;10.028;2022-10-31T01:54:21;16.52;;;6.85;;
67675;SDS011;54456;48.436;10.028;2022-10-31T01:55:53;20.90;;;6.60;;
67675;SDS011;54456;48.436;10.028;2022-10-31T01:57:23;15.07;;;6.67;;
67675;SDS011;54456;48.436;10.028;2022-10-31T01:58:55;14.85;;;6.70;;
67675;SDS011;54456;48.436;10.028;2022-10-31T02:00:26;14.55;;;6.15;;
67675;SDS011;54456;48.436;10.028;2022-10-31T02:01:56;13.17;;;6.53;;
67675;SDS011;54456;48.436;10.028;2022-10-31T02:03:27;12.50;;;5.83;;
67675;SDS011;54456;48.436;10.028;2022-10-31T02:04:58;14.75;;;6.63;;
67675;SDS011;54456;48.436;10.028;2022-10-31T02:09:38;12.48;;;5.45;;
67675;SDS011;54456;48.436;10.028;2022-10-31T02:11:09;12.40;;;6.00;;
67675;SDS011;54456;48.436;10.028;2022-10-31T02:12:40;14.75;;;6.10;;
67675;SDS011;54456;48.436;10.028;2022-10-31T02:14:11;14.77;;;5.65;;
67675;SDS011;54456;48.436;10.028;2022-10-31T02:15:41;16.90;;;6.25;;
67675;SDS011;54456;48.436;10.028;2022-10-31T02:17:13;15.93;;;6.13;;
67675;SDS011;54456;48.436;10.028;2022-10-31T02:18:43;15.07;;;6.00;;
67675;SDS011;54456;48.436;10.028;2022-10-31T02:21:53;11.73;;;6.18;;
67675;SDS011;54456;48.436;10.028;2022-10-31T02:47:03;15.17;;;5.90;;
67675;SDS011;54456;48.436;10.028;2022-10-31T02:48:36;11.13;;;5.25;;
67675;SDS011;54456;48.436;10.028;2022-10-31T02:51:41;14.90;;;6.47;;
67675;SDS011;54456;48.436;10.028;2022-10-31T02:53:13;13.52;;;5.75;;
67675;SDS011;54456;48.436;10.028;2022-10-31T02:54:45;14.77;;;4.95;;
67675;SDS011;54456;48.436;10.028;2022-10-31T02:56:17;14.05;;;6.15;;
67675;SDS011;54456;48.436;10.028;2022-10-31T02:57:48;12.88;;;6.13;;
67675;SDS011;54456;48.436;10.028;2022-10-31T02:59:19;12.55;;;5.93;;
67675;SDS011;54456;48.436;10.028;2022-10-31T03:00:58;12.43;;;4.38;;
67675;SDS011;54456;48.436;10.028;2022-10-31T03:04:37;15.90;;;4.85;;
67675;SDS011;54456;48.436;10.028;2022-10-31T03:11:35;11.75;;;5.75;;
67675;SDS011;54456;48.436;10.028;2022-10-31T03:15:12;10.82;;;5.60;;
67675;SDS011;54456;48.436;10.028;2022-10-31T03:16:45;12.70;;;6.15;;
67675;SDS011;54456;48.436;10.028;2022-10-31T03:18:27;14.02;;;5.93;;
67675;SDS011;54456;48.436;10.028;2022-10-31T03:20:00;11.48;;;5.13;;
67675;SDS011;54456;48.436;10.028;2022-10-31T03:21:53;10.52;;;5.30;;
67675;SDS011;54456;48.436;10.028;2022-10-31T03:23:31;12.75;;;5.75;;
67675;SDS011;54456;48.436;10.028;2022-10-31T03:25:04;14.73;;;5.35;;
67675;SDS011;54456;48.436;10.028;2022-10-31T03:26:35;14.00;;;5.90;;
67675;SDS011;54456;48.436;10.028;2022-10-31T03:28:07;13.10;;;5.65;;
67675;SDS011;54456;48.436;10.028;2022-10-31T03:29:40;12.90;;;5.85;;
67675;SDS011;54456;48.436;10.028;2022-10-31T03:31:12;13.63;;;6.82;;
67675;SDS011;54456;48.436;10.028;2022-10-31T03:32:48;11.52;;;6.00;;
67675;SDS011;54456;48.436;10.028;2022-10-31T03:34:22;12.50;;;5.15;;
67675;SDS011;54456;48.436;10.028;2022-10-31T03:35:53;12.98;;;4.95;;
67675;SDS011;54456;48.436;10.028;2022-10-31T03:37:25;13.77;;;6.00;;
67675;SDS011;54456;48.436;10.028;2022-10-31T03:38:58;10.82;;;5.10;;
67675;SDS011;54456;48.436;10.028;2022-10-31T03:40:30;12.38;;;5.40;;
67675;SDS011;54456;48.436;10.028;2022-10-31T03:43:36;11.90;;;5.32;;
67675;SDS011;54456;48.436;10.028;2022-10-31T03:46:39;12.40;;;5.15;;
67675;SDS011;54456;48.436;10.028;2022-10-31T03:48:09;13.90;;;5.93;;
67675;SDS011;54456;48.436;10.028;2022-10-31T03:49:40;11.82;;;5.50;;
67675;SDS011;54456;48.436;10.028;2022-10-31T03:51:13;11.20;;;5.73;;
67675;SDS011;54456;48.436;10.028;2022-10-31T03:55:51;12.50;;;5.50;;
67675;SDS011;54456;48.436;10.028;2022-10-31T03:57:27;14.00;;;5.30;;
67675;SDS011;54456;48.436;10.028;2022-10-31T04:00:32;14.10;;;5.80;;
67675;SDS011;54456;48.436;10.028;2022-10-31T04:02:05;12.63;;;5.88;;
67675;SDS011;54456;48.436;10.028;2022-10-31T04:03:37;15.80;;;5.57;;
67675;SDS011;54456;48.436;10.028;2022-10-31T04:05:08;13.20;;;4.57;;
67675;SDS011;54456;48.436;10.028;2022-10-31T04:06:40;13.45;;;6.15;;
67675;SDS011;54456;48.436;10.028;2022-10-31T04:08:13;12.27;;;5.22;;
67675;SDS011;54456;48.436;10.028;2022-10-31T04:09:46;12.32;;;6.07;;
67675;SDS011;54456;48.436;10.028;2022-10-31T04:11:18;12.00;;;5.22;;
67675;SDS011;54456;48.436;10.028;2022-10-31T04:12:53;12.50;;;4.90;;
67675;SDS011;54456;48.436;10.028;2022-10-31T04:14:26;11.95;;;4.97;;
67675;SDS011;54456;48.436;10.028;2022-10-31T04:15:58;12.35;;;5.30;;
67675;SDS011;54456;48.436;10.028;2022-10-31T04:17:29;13.70;;;5.68;;
67675;SDS011;54456;48.436;10.028;2022-10-31T04:19:02;13.65;;;5.65;;
67675;SDS011;54456;48.436;10.028;2022-10-31T04:20:33;15.60;;;5.77;;
67675;SDS011;54456;48.436;10.028;2022-10-31T04:22:04;13.80;;;5.40;;
67675;SDS011;54456;48.436;10.028;2022-10-31T04:23:35;11.63;;;5.30;;
67675;SDS011;54456;48.436;10.028;2022-10-31T04:25:06;13.07;;;4.70;;
67675;SDS011;54456;48.436;10.028;2022-10-31T04:26:37;14.65;;;5.32;;
67675;SDS011;54456;48.436;10.028;2022-10-31T04:28:07;10.63;;;4.70;;
67675;SDS011;54456;48.436;10.028;2022-10-31T04:29:37;11.17;;;5.00;;
67675;SDS011;54456;48.436;10.028;2022-10-31T04:31:08;13.50;;;5.30;;
67675;SDS011;54456;48.436;10.028;2022-10-31T04:32:40;11.65;;;5.15;;
67675;SDS011;54456;48.436;10.028;2022-10-31T04:34:11;14.83;;;5.20;;
67675;SDS011;54456;48.436;10.028;2022-10-31T04:35:41;12.80;;;4.60;;
67675;SDS011;54456;48.436;10.028;2022-10-31T04:37:11;11.63;;;5.30;;
67675;SDS011;54456;48.436;10.028;2022-10-31T04:38:42;12.27;;;5.13;;
67675;SDS011;54456;48.436;10.028;2022-10-31T04:40:12;11.10;;;5.23;;
67675;SDS011;54456;48.436;10.028;2022-10-31T04:41:42;15.10;;;5.10;;
67675;SDS011;54456;48.436;10.028;2022-10-31T04:43:13;12.17;;;5.27;;
67675;SDS011;54456;48.436;10.028;2022-10-31T04:44:43;12.60;;;4.97;;
67675;SDS011;54456;48.436;10.028;2022-10-31T04:46:13;11.70;;;4.97;;
67675;SDS011;54456;48.436;10.028;2022-10-31T04:47:43;11.60;;;4.95;;
67675;SDS011;54456;48.436;10.028;2022-10-31T04:49:14;10.80;;;5.23;;
67675;SDS011;54456;48.436;10.028;2022-10-31T04:50:44;15.43;;;5.30;;
67675;SDS011;54456;48.436;10.028;2022-10-31T04:52:14;13.70;;;5.20;;
67675;SDS011;54456;48.436;10.028;2022-10-31T04:53:45;10.83;;;5.30;;
67675;SDS011;54456;48.436;10.028;2022-10-31T04:55:15;13.40;;;4.70;;
67675;SDS011;54456;48.436;10.028;2022-10-31T04:56:45;12.88;;;4.93;;
67675;SDS011;54456;48.436;10.028;2022-10-31T04:58:16;11.30;;;5.63;;
67675;SDS011;54456;48.436;10.028;2022-10-31T04:59:46;12.20;;;4.83;;
67675;SDS011;54456;48.436;10.028;2022-10-31T05:01:16;10.83;;;5.33;;
67675;SDS011;54456;48.436;10.028;2022-10-31T05:02:51;13.52;;;5.38;;
67675;SDS011;54456;48.436;10.028;2022-10-31T05:04:22;11.95;;;4.90;;
67675;SDS011;54456;48.436;10.028;2022-10-31T05:05:52;10.60;;;4.70;;
67675;SDS011;54456;48.436;10.028;2022-10-31T05:07:23;11.83;;;5.10;;
67675;SDS011;54456;48.436;10.028;2022-10-31T05:08:53;10.63;;;4.47;;
67675;SDS011;54456;48.436;10.028;2022-10-31T05:10:24;11.77;;;5.40;;
67675;SDS011;54456;48.436;10.028;2022-10-31T05:11:56;12.30;;;4.85;;
67675;SDS011;54456;48.436;10.028;2022-10-31T05:13:26;14.38;;;5.68;;
67675;SDS011;54456;48.436;10.028;2022-10-31T05:14:56;15.17;;;5.60;;
67675;SDS011;54456;48.436;10.028;2022-10-31T05:16:27;12.73;;;5.23;;
67675;SDS011;54456;48.436;10.028;2022-10-31T05:17:58;13.52;;;5.22;;
67675;SDS011;54456;48.436;10.028;2022-10-31T05:19:29;14.38;;;5.53;;
67675;SDS011;54456;48.436;10.028;2022-10-31T05:20:59;12.03;;;5.63;;
67675;SDS011;54456;48.436;10.028;2022-10-31T05:22:29;13.03;;;4.77;;
67675;SDS011;54456;48.436;10.028;2022-10-31T05:23:59;10.73;;;5.40;;
67675;SDS011;54456;48.436;10.028;2022-10-31T05:25:30;16.53;;;5.80;;
67675;SDS011;54456;48.436;10.028;2022-10-31T05:27:00;13.45;;;5.45;;
67675;SDS011;54456;48.436;10.028;2022-10-31T05:28:30;9.90;;;4.60;;
67675;SDS011;54456;48.436;10.028;2022-10-31T05:30:01;13.47;;;4.97;;
67675;SDS011;54456;48.436;10.028;2022-10-31T05:31:31;10.33;;;5.13;;
67675;SDS011;54456;48.436;10.028;2022-10-31T05:33:01;12.77;;;5.77;;
67675;SDS011;54456;48.436;10.028;2022-10-31T05:34:32;14.60;;;6.15;;
67675;SDS011;54456;48.436;10.028;2022-10-31T05:36:02;17.35;;;6.10;;
67675;SDS011;54456;48.436;10.028;2022-10-31T05:37:33;15.10;;;6.05;;
67675;SDS011;54456;48.436;10.028;2022-10-31T05:39:06;14.95;;;5.60;;
67675;SDS011;54456;48.436;10.028;2022-10-31T05:40:36;15.52;;;6.40;;
67675;SDS011;54456;48.436;10.028;2022-10-31T05:42:07;16.50;;;7.00;;
67675;SDS011;54456;48.436;10.028;2022-10-31T05:43:37;16.40;;;6.97;;
67675;SDS011;54456;48.436;10.028;2022-10-31T05:45:11;19.23;;;6.87;;
67675;SDS011;54456;48.436;10.028;2022-10-31T05:46:43;16.33;;;6.35;;
67675;SDS011;54456;48.436;10.028;2022-10-31T05:48:13;12.20;;;6.37;;
67675;SDS011;54456;48.436;10.028;2022-10-31T05:49:43;13.10;;;6.07;;
67675;SDS011;54456;48.436;10.028;2022-10-31T05:51:14;13.43;;;5.90;;
67675;SDS011;54456;48.436;10.028;2022-10-31T05:52:44;10.75;;;5.05;;
67675;SDS011;54456;48.436;10.028;2022-10-31T05:54:15;15.75;;;5.47;;
67675;SDS011;54456;48.436;10.028;2022-10-31T05:55:45;11.65;;;5.95;;
67675;SDS011;54456;48.436;10.028;2022-10-31T05:57:16;13.85;;;6.03;;
67675;SDS011;54456;48.436;10.028;2022-10-31T05:58:46;14.93;;;6.53;;
67675;SDS011;54456;48.436;10.028;2022-10-31T06:00:17;19.27;;;6.83;;
67675;SDS011;54456;48.436;10.028;2022-10-31T06:01:48;15.77;;;7.00;;
67675;SDS011;54456;48.436;10.028;2022-10-31T06:03:18;15.93;;;6.70;;
67675;SDS011;54456;48.436;10.028;2022-10-31T06:04:48;12.80;;;6.13;;
67675;SDS011;54456;48.436;10.028;2022-10-31T06:06:19;16.60;;;6.50;;
67675;SDS011;54456;48.436;10.028;2022-10-31T06:07:49;17.50;;;6.50;;
67675;SDS011;54456;48.436;10.028;2022-10-31T06:09:19;15.27;;;6.67;;
67675;SDS011;54456;48.436;10.028;2022-10-31T06:10:49;17.33;;;5.67;;
67675;SDS011;54456;48.436;10.028;2022-10-31T06:12:20;22.02;;;6.45;;
67675;SDS011;54456;48.436;10.028;2022-10-31T06:13:50;16.20;;;6.33;;
67675;SDS011;54456;48.436;10.028;2022-10-31T06:15:20;16.33;;;5.57;;
67675;SDS011;54456;48.436;10.028;2022-10-31T06:16:51;14.07;;;6.55;;
67675;SDS011;54456;48.436;10.028;2022-10-31T06:18:22;15.73;;;6.68;;
67675;SDS011;54456;48.436;10.028;2022-10-31T06:19:52;15.47;;;5.97;;
67675;SDS011;54456;48.436;10.028;2022-10-31T06:21:23;15.50;;;6.60;;
67675;SDS011;54456;48.436;10.028;2022-10-31T06:22:53;16.40;;;6.30;;
67675;SDS011;54456;48.436;10.028;2022-10-31T06:24:23;14.20;;;6.05;;
67675;SDS011;54456;48.436;10.028;2022-10-31T06:25:54;12.70;;;5.95;;
67675;SDS011;54456;48.436;10.028;2022-10-31T06:27:25;12.13;;;5.55;;
67675;SDS011;54456;48.436;10.028;2022-10-31T06:28:56;13.82;;;5.72;;
67675;SDS011;54456;48.436;10.028;2022-10-31T06:30:26;14.77;;;6.03;;
67675;SDS011;54456;48.436;10.028;2022-10-31T06:31:56;12.65;;;4.60;;
67675;SDS011;54456;48.436;10.028;2022-10-31T06:33:27;15.23;;;6.37;;
67675;SDS011;54456;48.436;10.028;2022-10-31T06:34:57;17.80;;;7.40;;
67675;SDS011;54456;48.436;10.028;2022-10-31T06:36:27;17.73;;;7.07;;
67675;SDS011;54456;48.436;10.028;2022-10-31T06:37:58;16.27;;;7.28;;
67675;SDS011;54456;48.436;10.028;2022-10-31T06:39:28;16.25;;;7.47;;
67675;SDS011;54456;48.436;10.028;2022-10-31T06:41:01;13.77;;;6.30;;
67675;SDS011;54456;48.436;10.028;2022-10-31T06:42:33;16.92;;;5.80;;
67675;SDS011;54456;48.436;10.028;2022-10-31T06:44:03;15.60;;;5.93;;
67675;SDS011;54456;48.436;10.028;2022-10-31T06:45:34;13.90;;;5.40;;
67675;SDS011;54456;48.436;10.028;2022-10-31T06:47:05;12.20;;;5.67;;
67675;SDS011;54456;48.436;10.028;2022-10-31T06:48:35;15.82;;;5.70;;
67675;SDS011;54456;48.436;10.028;2022-10-31T06:50:06;13.20;;;5.67;;
67675;SDS011;54456;48.436;10.028;2022-10-31T06:51:36;14.57;;;6.90;;
67675;SDS011;54456;48.436;10.028;2022-10-31T06:53:07;17.53;;;7.57;;
67675;SDS011;54456;48.436;10.028;2022-10-31T06:54:38;16.77;;;6.43;;
67675;SDS011;54456;48.436;10.028;2022-10-31T06:56:08;17.10;;;6.60;;
67675;SDS011;54456;48.436;10.028;2022-10-31T06:57:38;15.70;;;6.87;;
67675;SDS011;54456;48.436;10.028;2022-10-31T06:59:09;15.13;;;6.33;;
67675;SDS011;54456;48.436;10.028;2022-10-31T07:00:39;16.27;;;6.07;;
67675;SDS011;54456;48.436;10.028;2022-10-31T07:02:09;14.70;;;6.23;;
67675;SDS011;54456;48.436;10.028;2022-10-31T07:03:40;13.48;;;5.72;;
67675;SDS011;54456;48.436;10.028;2022-10-31T07:05:10;12.98;;;5.55;;
67675;SDS011;54456;48.436;10.028;2022-10-31T07:06:41;14.37;;;5.80;;
67675;SDS011;54456;48.436;10.028;2022-10-31T07:08:11;12.77;;;4.93;;
67675;SDS011;54456;48.436;10.028;2022-10-31T07:09:42;13.55;;;5.40;;
67675;SDS011;54456;48.436;10.028;2022-10-31T07:11:13;11.70;;;5.60;;
67675;SDS011;54456;48.436;10.028;2022-10-31T07:12:43;12.50;;;5.73;;
67675;SDS011;54456;48.436;10.028;2022-10-31T07:14:13;12.60;;;5.40;;
67675;SDS011;54456;48.436;10.028;2022-10-31T07:15:44;11.80;;;4.93;;
67675;SDS011;54456;48.436;10.028;2022-10-31T07:17:14;13.02;;;5.22;;
67675;SDS011;54456;48.436;10.028;2022-10-31T07:18:45;15.25;;;4.90;;
67675;SDS011;54456;48.436;10.028;2022-10-31T07:20:16;14.50;;;5.00;;
67675;SDS011;54456;48.436;10.028;2022-10-31T07:21:46;12.93;;;5.38;;
67675;SDS011;54456;48.436;10.028;2022-10-31T07:23:17;13.07;;;4.73;;
67675;SDS011;54456;48.436;10.028;2022-10-31T07:24:47;14.65;;;4.60;;
67675;SDS011;54456;48.436;10.028;2022-10-31T07:26:17;12.77;;;4.97;;
67675;SDS011;54456;48.436;10.028;2022-10-31T07:27:48;12.23;;;5.13;;
67675;SDS011;54456;48.436;10.028;2022-10-31T07:29:18;13.30;;;5.88;;
67675;SDS011;54456;48.436;10.028;2022-10-31T07:30:55;10.93;;;5.43;;
67675;SDS011;54456;48.436;10.028;2022-10-31T07:32:26;13.68;;;5.05;;
67675;SDS011;54456;48.436;10.028;2022-10-31T07:33:57;14.33;;;5.10;;
67675;SDS011;54456;48.436;10.028;2022-10-31T07:35:28;10.90;;;4.93;;
67675;SDS011;54456;48.436;10.028;2022-10-31T07:36:58;10.27;;;5.13;;
67675;SDS011;54456;48.436;10.028;2022-10-31T07:38:29;11.83;;;5.33;;
67675;SDS011;54456;48.436;10.028;2022-10-31T07:39:59;11.27;;;4.63;;
67675;SDS011;54456;48.436;10.028;2022-10-31T07:41:29;12.60;;;5.18;;
67675;SDS011;54456;48.436;10.028;2022-10-31T07:43:02;15.18;;;4.97;;
67675;SDS011;54456;48.436;10.028;2022-10-31T07:44:32;10.93;;;4.68;;
67675;SDS011;54456;48.436;10.028;2022-10-31T07:46:03;11.00;;;4.65;;
67675;SDS011;54456;48.436;10.028;2022-10-31T07:47:38;11.18;;;4.97;;
67675;SDS011;54456;48.436;10.028;2022-10-31T07:49:11;11.88;;;5.07;;
67675;SDS011;54456;48.436;10.028;2022-10-31T07:50:42;12.20;;;4.97;;
67675;SDS011;54456;48.436;10.028;2022-10-31T07:52:12;11.65;;;4.57;;
67675;SDS011;54456;48.436;10.028;2022-10-31T07:53:42;12.20;;;4.70;;
67675;SDS011;54456;48.436;10.028;2022-10-31T07:55:13;11.43;;;5.30;;
67675;SDS011;54456;48.436;10.028;2022-10-31T07:56:44;13.30;;;5.00;;
67675;SDS011;54456;48.436;10.028;2022-10-31T07:58:17;14.35;;;5.28;;
67675;SDS011;54456;48.436;10.028;2022-10-31T07:59:48;10.70;;;4.75;;
67675;SDS011;54456;48.436;10.028;2022-10-31T08:01:21;9.77;;;4.82;;
67675;SDS011;54456;48.436;10.028;2022-10-31T08:03:06;13.02;;;5.05;;
67675;SDS011;54456;48.436;10.028;2022-10-31T08:04:38;11.25;;;4.93;;
67675;SDS011;54456;48.436;10.028;2022-10-31T08:06:08;11.77;;;4.60;;
67675;SDS011;54456;48.436;10.028;2022-10-31T08:07:39;12.67;;;5.00;;
67675;SDS011;54456;48.436;10.028;2022-10-31T08:09:09;12.35;;;4.68;;
67675;SDS011;54456;48.436;10.028;2022-10-31T08:10:39;11.40;;;4.90;;
67675;SDS011;54456;48.436;10.028;2022-10-31T08:12:10;14.65;;;4.95;;
67675;SDS011;54456;48.436;10.028;2022-10-31T08:13:40;13.03;;;5.17;;
67675;SDS011;54456;48.436;10.028;2022-10-31T08:15:12;12.50;;;4.93;;
67675;SDS011;54456;48.436;10.028;2022-10-31T08:16:43;10.93;;;5.07;;
67675;SDS011;54456;48.436;10.028;2022-10-31T08:18:13;11.90;;;5.40;;
67675;SDS011;54456;48.436;10.028;2022-10-31T08:19:44;11.35;;;5.13;;
67675;SDS011;54456;48.436;10.028;2022-10-31T08:21:14;12.55;;;5.43;;
67675;SDS011;54456;48.436;10.028;2022-10-31T08:22:55;11.35;;;5.10;;
67675;SDS011;54456;48.436;10.028;2022-10-31T08:24:26;12.32;;;5.45;;
67675;SDS011;54456;48.436;10.028;2022-10-31T08:25:57;13.07;;;5.60;;
67675;SDS011;54456;48.436;10.028;2022-10-31T08:27:27;11.88;;;4.88;;
67675;SDS011;54456;48.436;10.028;2022-10-31T08:28:57;12.47;;;5.63;;
67675;SDS011;54456;48.436;10.028;2022-10-31T08:30:29;16.75;;;5.45;;
67675;SDS011;54456;48.436;10.028;2022-10-31T08:32:00;13.52;;;5.47;;
67675;SDS011;54456;48.436;10.028;2022-10-31T08:33:30;14.00;;;5.55;;
67675;SDS011;54456;48.436;10.028;2022-10-31T08:35:01;12.52;;;5.50;;
67675;SDS011;54456;48.436;10.028;2022-10-31T08:36:31;13.35;;;5.20;;
67675;SDS011;54456;48.436;10.028;2022-10-31T08:38:01;10.52;;;5.28;;
67675;SDS011;54456;48.436;10.028;2022-10-31T08:39:32;10.85;;;5.32;;
67675;SDS011;54456;48.436;10.028;2022-10-31T08:41:02;14.68;;;5.75;;
67675;SDS011;54456;48.436;10.028;2022-10-31T08:42:33;12.85;;;5.85;;
67675;SDS011;54456;48.436;10.028;2022-10-31T08:44:03;14.13;;;5.65;;
67675;SDS011;54456;48.436;10.028;2022-10-31T08:45:34;10.75;;;5.80;;
67675;SDS011;54456;48.436;10.028;2022-10-31T08:47:04;13.40;;;5.80;;
67675;SDS011;54456;48.436;10.028;2022-10-31T08:48:35;12.30;;;6.03;;
67675;SDS011;54456;48.436;10.028;2022-10-31T08:50:05;12.23;;;5.87;;
67675;SDS011;54456;48.436;10.028;2022-10-31T08:51:36;13.30;;;5.65;;
67675;SDS011;54456;48.436;10.028;2022-10-31T08:53:07;12.32;;;6.13;;
67675;SDS011;54456;48.436;10.028;2022-10-31T08:54:39;11.57;;;5.35;;
67675;SDS011;54456;48.436;10.028;2022-10-31T08:56:10;11.38;;;5.80;;
67675;SDS011;54456;48.436;10.028;2022-10-31T08:57:40;11.97;;;6.37;;
67675;SDS011;54456;48.436;10.028;2022-10-31T08:59:10;14.27;;;5.70;;
67675;SDS011;54456;48.436;10.028;2022-10-31T09:00:41;12.00;;;5.03;;
67675;SDS011;54456;48.436;10.028;2022-10-31T09:02:12;11.63;;;5.78;;
67675;SDS011;54456;48.436;10.028;2022-10-31T09:03:42;13.48;;;5.93;;
67675;SDS011;54456;48.436;10.028;2022-10-31T09:05:12;12.90;;;6.35;;
67675;SDS011;54456;48.436;10.028;2022-10-31T09:06:43;13.10;;;6.22;;
67675;SDS011;54456;48.436;10.028;2022-10-31T09:08:13;15.70;;;6.30;;
67675;SDS011;54456;48.436;10.028;2022-10-31T09:09:44;12.25;;;6.57;;
67675;SDS011;54456;48.436;10.028;2022-10-31T09:11:14;12.73;;;6.20;;
67675;SDS011;54456;48.436;10.028;2022-10-31T09:12:45;15.43;;;6.22;;
67675;SDS011;54456;48.436;10.028;2022-10-31T09:14:15;13.30;;;7.10;;
67675;SDS011;54456;48.436;10.028;2022-10-31T09:15:47;14.07;;;6.93;;
67675;SDS011;54456;48.436;10.028;2022-10-31T09:17:18;12.95;;;6.55;;
67675;SDS011;54456;48.436;10.028;2022-10-31T09:18:48;13.75;;;7.25;;
67675;SDS011;54456;48.436;10.028;2022-10-31T09:20:19;13.10;;;6.47;;
67675;SDS011;54456;48.436;10.028;2022-10-31T09:21:53;11.63;;;6.32;;
67675;SDS011;54456;48.436;10.028;2022-10-31T09:23:24;13.90;;;6.47;;
67675;SDS011;54456;48.436;10.028;2022-10-31T09:24:54;14.40;;;6.88;;
67675;SDS011;54456;48.436;10.028;2022-10-31T09:26:24;13.50;;;5.80;;
67675;SDS011;54456;48.436;10.028;2022-10-31T09:27:55;13.17;;;6.73;;
67675;SDS011;54456;48.436;10.028;2022-10-31T09:29:27;15.05;;;5.82;;
67675;SDS011;54456;48.436;10.028;2022-10-31T09:30:57;16.83;;;6.60;;
67675;SDS011;54456;48.436;10.028;2022-10-31T09:32:27;14.07;;;6.65;;
67675;SDS011;54456;48.436;10.028;2022-10-31T09:33:58;13.67;;;6.93;;
67675;SDS011;54456;48.436;10.028;2022-10-31T09:35:28;13.77;;;7.07;;
67675;SDS011;54456;48.436;10.028;2022-10-31T09:36:59;13.68;;;7.00;;
67675;SDS011;54456;48.436;10.028;2022-10-31T09:38:29;14.68;;;6.90;;
67675;SDS011;54456;48.436;10.028;2022-10-31T09:39:59;14.40;;;6.90;;
67675;SDS011;54456;48.436;10.028;2022-10-31T09:51:07;14.82;;;6.88;;